sensor_id;sensor_type;location;lat;lon;timestamp;temperature;humidity
2158;DHT22;41972;48.774;9.282;2023-01-10T00:01:57;5.10;99.90
2158;DHT22;41972;48.774;9.282;2023-01-10T00:04:24;5.00;99.90
2158;DHT22;41972;48.774;9.282;2023-01-10T00:06:54;5.00;99.90
2158;DHT22;41972;48.774;9.282;2023-01-10T00:09:19;5.10;99.90
2158;DHT22;41972;48.774;9.282;2023-01-10T00:11:45;5.00;99.90
2158;DHT22;41972;48.774;9.282;2023-01-10T00:14:29;5.00;99.90
2158;DHT22;41972;48.774;9.282;2023-01-10T00:16:57;5.20;99.90
2158;DHT22;41972;48.774;9.282;2023-01-10T00:19:24;4.90;99.90
2158;DHT22;41972;48.774;9.282;2023-01-10T00:21:49;5.00;99.90
2158;DHT22;41972;48.774;9.282;2023-01-10T00:24:15;5.10;99.90
2158;DHT22;41972;48.774;9.282;2023-01-10T00:26:44;4.90;99.90
2158;DHT22;41972;48.774;9.282;2023-01-10T00:29:18;5.00;99.90
2158;DHT22;41972;48.774;9.282;2023-01-10T00:31:43;5.00;99.90
2158;DHT22;41972;48.774;9.282;2023-01-10T00:34:09;5.00;99.90
2158;DHT22;41972;48.774;9.282;2023-01-10T00:36:34;4.90;99.90
2158;DHT22;41972;48.774;9.282;2023-01-10T00:39:00;5.00;99.90
2158;DHT22;41972;48.774;9.282;2023-01-10T00:41:25;5.10;99.90
2158;DHT22;41972;48.774;9.282;2023-01-10T00:44:09;5.20;99.90
2158;DHT22;41972;48.774;9.282;2023-01-10T00:46:35;5.10;99.90
2158;DHT22;41972;48.774;9.282;2023-01-10T00:49:00;5.10;99.90
2158;DHT22;41972;48.774;9.282;2023-01-10T00:51:28;5.10;99.90
2158;DHT22;41972;48.774;9.282;2023-01-10T00:53:53;5.20;99.90
2158;DHT22;41972;48.774;9.282;2023-01-10T00:56:19;5.20;99.90
2158;DHT22;41972;48.774;9.282;2023-01-10T00:58:44;5.40;99.90
2158;DHT22;41972;48.774;9.282;2023-01-10T01:01:10;5.40;99.90
2158;DHT22;41972;48.774;9.282;2023-01-10T01:03:35;5.30;99.90
2158;DHT22;41972;48.774;9.282;2023-01-10T01:06:05;5.20;99.90
2158;DHT22;41972;48.774;9.282;2023-01-10T01:08:30;5.10;99.90
2158;DHT22;41972;48.774;9.282;2023-01-10T01:10:56;5.00;99.90
2158;DHT22;41972;48.774;9.282;2023-01-10T01:13:22;5.00;99.90
2158;DHT22;41972;48.774;9.282;2023-01-10T01:15:48;5.10;99.90
2158;DHT22;41972;48.774;9.282;2023-01-10T01:18:16;5.10;99.90
2158;DHT22;41972;48.774;9.282;2023-01-10T01:20:42;5.00;99.90
2158;DHT22;41972;48.774;9.282;2023-01-10T01:23:10;5.00;99.90
2158;DHT22;41972;48.774;9.282;2023-01-10T01:25:36;4.90;99.90
2158;DHT22;41972;48.774;9.282;2023-01-10T01:28:02;5.00;99.90
2158;DHT22;41972;48.774;9.282;2023-01-10T01:30:27;5.10;99.90
2158;DHT22;41972;48.774;9.282;2023-01-10T01:32:53;5.00;99.90
2158;DHT22;41972;48.774;9.282;2023-01-10T01:35:19;5.00;99.90
2158;DHT22;41972;48.774;9.282;2023-01-10T01:37:44;4.90;99.90
2158;DHT22;41972;48.774;9.282;2023-01-10T01:40:13;5.00;99.90
2158;DHT22;41972;48.774;9.282;2023-01-10T01:42:39;5.00;99.90
2158;DHT22;41972;48.774;9.282;2023-01-10T01:53:14;5.10;99.90
2158;DHT22;41972;48.774;9.282;2023-01-10T01:55:42;5.00;99.90
2158;DHT22;41972;48.774;9.282;2023-01-10T01:58:14;5.00;99.90
2158;DHT22;41972;48.774;9.282;2023-01-10T02:00:40;5.10;99.90
2158;DHT22;41972;48.774;9.282;2023-01-10T02:03:06;5.10;99.90
2158;DHT22;41972;48.774;9.282;2023-01-10T02:05:34;5.10;99.90
2158;DHT22;41972;48.774;9.282;2023-01-10T02:08:00;5.10;99.90
2158;DHT22;41972;48.774;9.282;2023-01-10T02:10:52;5.10;99.90
2158;DHT22;41972;48.774;9.282;2023-01-10T02:13:22;5.10;99.90
2158;DHT22;41972;48.774;9.282;2023-01-10T02:15:49;5.10;99.90
2158;DHT22;41972;48.774;9.282;2023-01-10T02:18:15;5.10;99.90
2158;DHT22;41972;48.774;9.282;2023-01-10T02:26:45;5.00;99.90
2158;DHT22;41972;48.774;9.282;2023-01-10T02:32:10;5.00;99.90
2158;DHT22;41972;48.774;9.282;2023-01-10T02:34:56;4.90;99.90
2158;DHT22;41972;48.774;9.282;2023-01-10T02:40:33;4.70;99.90
2158;DHT22;41972;48.774;9.282;2023-01-10T02:43:09;4.70;99.90
2158;DHT22;41972;48.774;9.282;2023-01-10T02:45:43;4.80;99.90
2158;DHT22;41972;48.774;9.282;2023-01-10T02:48:11;4.80;99.90
2158;DHT22;41972;48.774;9.282;2023-01-10T02:53:36;4.80;99.90
2158;DHT22;41972;48.774;9.282;2023-01-10T02:59:20;4.60;99.90
2158;DHT22;41972;48.774;9.282;2023-01-10T03:02:09;4.50;99.90
2158;DHT22;41972;48.774;9.282;2023-01-10T03:10:36;4.50;99.90
2158;DHT22;41972;48.774;9.282;2023-01-10T03:13:30;4.40;99.90
2158;DHT22;41972;48.774;9.282;2023-01-10T03:16:00;4.40;99.90
2158;DHT22;41972;48.774;9.282;2023-01-10T03:18:32;4.30;99.90
2158;DHT22;41972;48.774;9.282;2023-01-10T03:21:01;4.40;99.90
2158;DHT22;41972;48.774;9.282;2023-01-10T03:23:28;4.40;99.90
2158;DHT22;41972;48.774;9.282;2023-01-10T03:25:56;4.40;99.90
2158;DHT22;41972;48.774;9.282;2023-01-10T03:28:29;4.40;99.90
2158;DHT22;41972;48.774;9.282;2023-01-10T03:31:03;4.50;99.90
2158;DHT22;41972;48.774;9.282;2023-01-10T03:33:32;4.40;99.90
2158;DHT22;41972;48.774;9.282;2023-01-10T03:39:19;4.50;99.90
2158;DHT22;41972;48.774;9.282;2023-01-10T03:42:11;4.50;99.90
2158;DHT22;41972;48.774;9.282;2023-01-10T03:45:00;4.50;99.90
2158;DHT22;41972;48.774;9.282;2023-01-10T03:47:43;4.50;99.90
2158;DHT22;41972;48.774;9.282;2023-01-10T03:53:59;4.50;99.90
2158;DHT22;41972;48.774;9.282;2023-01-10T03:56:48;4.50;99.90
2158;DHT22;41972;48.774;9.282;2023-01-10T03:59:19;4.50;99.90
2158;DHT22;41972;48.774;9.282;2023-01-10T04:02:05;4.50;99.90
2158;DHT22;41972;48.774;9.282;2023-01-10T04:04:31;4.50;99.90
2158;DHT22;41972;48.774;9.282;2023-01-10T04:06:57;4.50;99.90
2158;DHT22;41972;48.774;9.282;2023-01-10T04:09:37;4.50;99.90
2158;DHT22;41972;48.774;9.282;2023-01-10T04:12:02;4.50;99.90
2158;DHT22;41972;48.774;9.282;2023-01-10T04:14:28;4.50;99.90
2158;DHT22;41972;48.774;9.282;2023-01-10T04:17:15;4.50;99.90
2158;DHT22;41972;48.774;9.282;2023-01-10T04:19:41;4.50;99.90
2158;DHT22;41972;48.774;9.282;2023-01-10T04:22:11;4.50;99.90
2158;DHT22;41972;48.774;9.282;2023-01-10T04:24:37;4.60;99.90
2158;DHT22;41972;48.774;9.282;2023-01-10T04:27:09;4.60;99.90
2158;DHT22;41972;48.774;9.282;2023-01-10T04:29:35;4.60;99.90
2158;DHT22;41972;48.774;9.282;2023-01-10T04:32:02;4.60;99.90
2158;DHT22;41972;48.774;9.282;2023-01-10T04:34:27;4.60;99.90
2158;DHT22;41972;48.774;9.282;2023-01-10T04:37:04;4.60;99.90
2158;DHT22;41972;48.774;9.282;2023-01-10T04:39:41;4.70;99.90
2158;DHT22;41972;48.774;9.282;2023-01-10T04:42:07;4.60;99.90
2158;DHT22;41972;48.774;9.282;2023-01-10T04:44:33;4.60;99.90
2158;DHT22;41972;48.774;9.282;2023-01-10T04:47:09;4.60;99.90
2158;DHT22;41972;48.774;9.282;2023-01-10T04:49:35;4.60;99.90
2158;DHT22;41972;48.774;9.282;2023-01-10T04:52:22;4.50;99.90
2158;DHT22;41972;48.774;9.282;2023-01-10T04:54:50;4.50;99.90
2158;DHT22;41972;48.774;9.282;2023-01-10T04:57:16;4.40;99.90
2158;DHT22;41972;48.774;9.282;2023-01-10T04:59:42;4.40;99.90
2158;DHT22;41972;48.774;9.282;2023-01-10T05:02:08;4.40;99.90
2158;DHT22;41972;48.774;9.282;2023-01-10T05:04:33;4.40;99.90
2158;DHT22;41972;48.774;9.282;2023-01-10T05:06:59;4.30;99.90
2158;DHT22;41972;48.774;9.282;2023-01-10T05:09:25;4.40;99.90
2158;DHT22;41972;48.774;9.282;2023-01-10T05:11:50;4.40;99.90
2158;DHT22;41972;48.774;9.282;2023-01-10T05:14:16;4.30;99.90
2158;DHT22;41972;48.774;9.282;2023-01-10T05:16:41;4.30;99.90
2158;DHT22;41972;48.774;9.282;2023-01-10T05:19:07;4.30;99.90
2158;DHT22;41972;48.774;9.282;2023-01-10T05:21:33;4.30;99.90
2158;DHT22;41972;48.774;9.282;2023-01-10T05:23:59;4.30;99.90
2158;DHT22;41972;48.774;9.282;2023-01-10T05:26:25;4.10;99.90
2158;DHT22;41972;48.774;9.282;2023-01-10T05:28:51;4.10;99.90
2158;DHT22;41972;48.774;9.282;2023-01-10T05:31:18;4.10;99.90
2158;DHT22;41972;48.774;9.282;2023-01-10T05:33:57;4.20;99.90
2158;DHT22;41972;48.774;9.282;2023-01-10T05:36:23;4.20;99.90
2158;DHT22;41972;48.774;9.282;2023-01-10T05:38:57;4.30;99.90
2158;DHT22;41972;48.774;9.282;2023-01-10T05:41:32;4.20;99.90
2158;DHT22;41972;48.774;9.282;2023-01-10T05:43:58;4.30;99.90
2158;DHT22;41972;48.774;9.282;2023-01-10T05:46:24;4.40;99.90
2158;DHT22;41972;48.774;9.282;2023-01-10T05:48:51;4.40;99.90
2158;DHT22;41972;48.774;9.282;2023-01-10T05:51:17;4.40;99.90
2158;DHT22;41972;48.774;9.282;2023-01-10T05:53:42;4.40;99.90
2158;DHT22;41972;48.774;9.282;2023-01-10T05:56:11;4.50;99.90
2158;DHT22;41972;48.774;9.282;2023-01-10T05:58:37;4.50;99.90
2158;DHT22;41972;48.774;9.282;2023-01-10T06:01:02;4.50;99.90
2158;DHT22;41972;48.774;9.282;2023-01-10T06:03:28;4.60;99.90
2158;DHT22;41972;48.774;9.282;2023-01-10T06:05:54;4.50;99.90
2158;DHT22;41972;48.774;9.282;2023-01-10T06:08:20;4.50;99.90
2158;DHT22;41972;48.774;9.282;2023-01-10T06:10:46;4.60;99.90
2158;DHT22;41972;48.774;9.282;2023-01-10T06:13:11;4.60;99.90
2158;DHT22;41972;48.774;9.282;2023-01-10T06:15:37;4.70;99.90
2158;DHT22;41972;48.774;9.282;2023-01-10T06:18:03;4.60;99.90
2158;DHT22;41972;48.774;9.282;2023-01-10T06:20:29;4.60;99.90
2158;DHT22;41972;48.774;9.282;2023-01-10T06:22:54;4.60;99.90
2158;DHT22;41972;48.774;9.282;2023-01-10T06:25:20;4.60;99.90
2158;DHT22;41972;48.774;9.282;2023-01-10T06:27:46;4.70;99.90
2158;DHT22;41972;48.774;9.282;2023-01-10T06:30:12;4.60;99.90
2158;DHT22;41972;48.774;9.282;2023-01-10T06:32:38;4.60;99.90
2158;DHT22;41972;48.774;9.282;2023-01-10T06:35:05;4.50;99.90
2158;DHT22;41972;48.774;9.282;2023-01-10T06:37:31;4.50;99.90
2158;DHT22;41972;48.774;9.282;2023-01-10T06:39:57;4.50;99.90
2158;DHT22;41972;48.774;9.282;2023-01-10T06:42:23;4.50;99.90
2158;DHT22;41972;48.774;9.282;2023-01-10T06:44:49;4.60;99.90
2158;DHT22;41972;48.774;9.282;2023-01-10T06:47:14;4.60;99.90
2158;DHT22;41972;48.774;9.282;2023-01-10T06:49:40;4.60;99.90
2158;DHT22;41972;48.774;9.282;2023-01-10T06:52:05;4.70;99.90
2158;DHT22;41972;48.774;9.282;2023-01-10T06:54:34;4.70;99.90
2158;DHT22;41972;48.774;9.282;2023-01-10T06:56:59;4.70;99.90
2158;DHT22;41972;48.774;9.282;2023-01-10T06:59:25;4.70;99.90
2158;DHT22;41972;48.774;9.282;2023-01-10T07:01:50;4.70;99.90
2158;DHT22;41972;48.774;9.282;2023-01-10T07:04:16;4.70;99.90
2158;DHT22;41972;48.774;9.282;2023-01-10T07:06:41;4.70;99.90
2158;DHT22;41972;48.774;9.282;2023-01-10T07:09:07;4.70;99.90
2158;DHT22;41972;48.774;9.282;2023-01-10T07:11:34;4.70;99.90
2158;DHT22;41972;48.774;9.282;2023-01-10T07:14:00;4.70;99.90
2158;DHT22;41972;48.774;9.282;2023-01-10T07:16:26;4.70;99.90
2158;DHT22;41972;48.774;9.282;2023-01-10T07:18:52;4.60;99.90
2158;DHT22;41972;48.774;9.282;2023-01-10T07:21:17;4.70;99.90
2158;DHT22;41972;48.774;9.282;2023-01-10T07:23:49;4.70;99.90
2158;DHT22;41972;48.774;9.282;2023-01-10T07:26:15;4.80;99.90
2158;DHT22;41972;48.774;9.282;2023-01-10T07:28:46;4.80;99.90
2158;DHT22;41972;48.774;9.282;2023-01-10T07:31:15;4.70;99.90
2158;DHT22;41972;48.774;9.282;2023-01-10T07:33:41;4.80;99.90
2158;DHT22;41972;48.774;9.282;2023-01-10T07:36:07;4.80;99.90
2158;DHT22;41972;48.774;9.282;2023-01-10T07:38:32;4.80;99.90
2158;DHT22;41972;48.774;9.282;2023-01-10T07:41:00;4.80;99.90
2158;DHT22;41972;48.774;9.282;2023-01-10T07:43:26;4.80;99.90
2158;DHT22;41972;48.774;9.282;2023-01-10T07:45:52;4.70;99.90
2158;DHT22;41972;48.774;9.282;2023-01-10T07:48:17;4.80;99.90
2158;DHT22;41972;48.774;9.282;2023-01-10T07:50:43;4.80;99.90
2158;DHT22;41972;48.774;9.282;2023-01-10T07:53:09;4.80;99.90
2158;DHT22;41972;48.774;9.282;2023-01-10T07:55:36;4.90;99.90
2158;DHT22;41972;48.774;9.282;2023-01-10T07:58:03;4.90;99.90
2158;DHT22;41972;48.774;9.282;2023-01-10T08:00:29;4.90;99.90
2158;DHT22;41972;48.774;9.282;2023-01-10T08:02:55;4.90;99.90
2158;DHT22;41972;48.774;9.282;2023-01-10T08:05:22;5.00;99.90
2158;DHT22;41972;48.774;9.282;2023-01-10T08:07:48;5.10;99.90
2158;DHT22;41972;48.774;9.282;2023-01-10T08:10:13;5.00;99.90
2158;DHT22;41972;48.774;9.282;2023-01-10T08:12:39;5.00;99.90
2158;DHT22;41972;48.774;9.282;2023-01-10T08:15:05;5.10;99.90
2158;DHT22;41972;48.774;9.282;2023-01-10T08:17:34;5.10;99.90
2158;DHT22;41972;48.774;9.282;2023-01-10T08:20:00;5.20;99.90
2158;DHT22;41972;48.774;9.282;2023-01-10T08:22:25;5.30;99.90
2158;DHT22;41972;48.774;9.282;2023-01-10T08:24:51;5.20;99.90
2158;DHT22;41972;48.774;9.282;2023-01-10T08:27:17;5.20;99.90
2158;DHT22;41972;48.774;9.282;2023-01-10T08:29:43;5.10;99.90
2158;DHT22;41972;48.774;9.282;2023-01-10T08:32:09;5.20;99.90
2158;DHT22;41972;48.774;9.282;2023-01-10T08:34:34;5.30;99.90
2158;DHT22;41972;48.774;9.282;2023-01-10T08:37:00;5.30;99.90
2158;DHT22;41972;48.774;9.282;2023-01-10T08:39:27;5.20;99.90
2158;DHT22;41972;48.774;9.282;2023-01-10T08:41:55;5.40;99.90
2158;DHT22;41972;48.774;9.282;2023-01-10T08:44:20;5.50;99.90
2158;DHT22;41972;48.774;9.282;2023-01-10T08:46:46;5.30;99.90
2158;DHT22;41972;48.774;9.282;2023-01-10T08:49:12;5.20;99.90
2158;DHT22;41972;48.774;9.282;2023-01-10T08:51:37;5.20;99.90
2158;DHT22;41972;48.774;9.282;2023-01-10T08:54:03;5.30;99.90
2158;DHT22;41972;48.774;9.282;2023-01-10T08:56:28;5.20;99.90
2158;DHT22;41972;48.774;9.282;2023-01-10T08:58:54;5.50;99.90
2158;DHT22;41972;48.774;9.282;2023-01-10T09:01:20;5.60;99.90
2158;DHT22;41972;48.774;9.282;2023-01-10T09:03:45;5.60;99.90
2158;DHT22;41972;48.774;9.282;2023-01-10T09:06:11;5.70;99.90
2158;DHT22;41972;48.774;9.282;2023-01-10T09:08:37;5.60;99.90
2158;DHT22;41972;48.774;9.282;2023-01-10T09:11:04;5.80;99.90
2158;DHT22;41972;48.774;9.282;2023-01-10T09:13:30;5.80;99.90
2158;DHT22;41972;48.774;9.282;2023-01-10T09:15:56;5.70;99.90
2158;DHT22;41972;48.774;9.282;2023-01-10T09:18:22;5.90;99.90
2158;DHT22;41972;48.774;9.282;2023-01-10T09:20:49;6.10;99.90
2158;DHT22;41972;48.774;9.282;2023-01-10T09:23:17;5.80;99.90
2158;DHT22;41972;48.774;9.282;2023-01-10T09:25:49;5.80;99.90
2158;DHT22;41972;48.774;9.282;2023-01-10T09:28:15;5.70;99.90
2158;DHT22;41972;48.774;9.282;2023-01-10T09:30:43;5.70;99.90
2158;DHT22;41972;48.774;9.282;2023-01-10T09:33:09;5.30;99.90
2158;DHT22;41972;48.774;9.282;2023-01-10T09:35:37;5.50;99.90
2158;DHT22;41972;48.774;9.282;2023-01-10T09:38:05;5.60;99.90
2158;DHT22;41972;48.774;9.282;2023-01-10T09:51:43;5.80;99.90
2158;DHT22;41972;48.774;9.282;2023-01-10T09:54:17;5.60;99.90
2158;DHT22;41972;48.774;9.282;2023-01-10T09:56:44;5.50;99.90
2158;DHT22;41972;48.774;9.282;2023-01-10T09:59:20;5.20;99.90
2158;DHT22;41972;48.774;9.282;2023-01-10T10:01:51;5.50;99.90
2158;DHT22;41972;48.774;9.282;2023-01-10T10:04:32;5.80;99.90
2158;DHT22;41972;48.774;9.282;2023-01-10T10:06:58;5.60;99.90
2158;DHT22;41972;48.774;9.282;2023-01-10T10:09:29;5.60;99.90
2158;DHT22;41972;48.774;9.282;2023-01-10T10:12:09;5.60;99.90
2158;DHT22;41972;48.774;9.282;2023-01-10T10:17:43;5.20;99.90
2158;DHT22;41972;48.774;9.282;2023-01-10T10:23:29;5.00;99.90
2158;DHT22;41972;48.774;9.282;2023-01-10T10:28:43;5.20;99.90
2158;DHT22;41972;48.774;9.282;2023-01-10T10:34:33;6.00;99.90
2158;DHT22;41972;48.774;9.282;2023-01-10T10:37:03;6.10;99.90
2158;DHT22;41972;48.774;9.282;2023-01-10T10:39:39;5.80;99.90
2158;DHT22;41972;48.774;9.282;2023-01-10T10:42:11;6.10;99.90
2158;DHT22;41972;48.774;9.282;2023-01-10T10:47:31;5.50;99.90
2158;DHT22;41972;48.774;9.282;2023-01-10T10:52:45;5.40;99.90
2158;DHT22;41972;48.774;9.282;2023-01-10T10:55:16;5.30;99.90
2158;DHT22;41972;48.774;9.282;2023-01-10T10:57:44;5.30;99.90
2158;DHT22;41972;48.774;9.282;2023-01-10T11:00:16;5.40;99.90
2158;DHT22;41972;48.774;9.282;2023-01-10T11:05:37;6.60;99.90
2158;DHT22;41972;48.774;9.282;2023-01-10T11:08:06;7.40;99.90
2158;DHT22;41972;48.774;9.282;2023-01-10T11:10:39;7.60;99.90
2158;DHT22;41972;48.774;9.282;2023-01-10T11:15:57;6.40;99.90
2158;DHT22;41972;48.774;9.282;2023-01-10T11:18:28;6.10;99.90
2158;DHT22;41972;48.774;9.282;2023-01-10T11:23:40;5.90;99.90
2158;DHT22;41972;48.774;9.282;2023-01-10T11:26:22;5.70;99.90
2158;DHT22;41972;48.774;9.282;2023-01-10T11:28:52;6.00;99.90
2158;DHT22;41972;48.774;9.282;2023-01-10T11:31:27;6.10;99.90
2158;DHT22;41972;48.774;9.282;2023-01-10T11:33:53;6.00;99.90
2158;DHT22;41972;48.774;9.282;2023-01-10T11:36:19;6.30;99.90
2158;DHT22;41972;48.774;9.282;2023-01-10T11:39:01;6.30;99.90
2158;DHT22;41972;48.774;9.282;2023-01-10T11:41:28;6.40;99.90
2158;DHT22;41972;48.774;9.282;2023-01-10T11:44:15;6.40;99.90
2158;DHT22;41972;48.774;9.282;2023-01-10T11:46:45;6.20;99.90
2158;DHT22;41972;48.774;9.282;2023-01-10T11:49:13;6.40;99.90
2158;DHT22;41972;48.774;9.282;2023-01-10T11:51:57;6.30;99.90
2158;DHT22;41972;48.774;9.282;2023-01-10T11:54:25;6.30;99.90
2158;DHT22;41972;48.774;9.282;2023-01-10T11:57:08;6.60;99.90
2158;DHT22;41972;48.774;9.282;2023-01-10T11:59:39;6.90;99.90
2158;DHT22;41972;48.774;9.282;2023-01-10T12:04:48;6.50;99.90
2158;DHT22;41972;48.774;9.282;2023-01-10T12:07:15;6.50;99.90
2158;DHT22;41972;48.774;9.282;2023-01-10T12:09:55;6.70;99.90
2158;DHT22;41972;48.774;9.282;2023-01-10T12:12:24;6.50;99.90
2158;DHT22;41972;48.774;9.282;2023-01-10T12:14:52;6.00;99.90
2158;DHT22;41972;48.774;9.282;2023-01-10T12:19:46;6.30;99.90
2158;DHT22;41972;48.774;9.282;2023-01-10T12:22:14;6.30;99.90
2158;DHT22;41972;48.774;9.282;2023-01-10T12:24:42;6.50;99.90
2158;DHT22;41972;48.774;9.282;2023-01-10T12:27:12;7.00;99.90
2158;DHT22;41972;48.774;9.282;2023-01-10T12:30:05;7.10;99.90
2158;DHT22;41972;48.774;9.282;2023-01-10T12:32:43;7.00;99.90
2158;DHT22;41972;48.774;9.282;2023-01-10T12:35:17;7.30;99.90
2158;DHT22;41972;48.774;9.282;2023-01-10T12:40:48;6.70;99.90
2158;DHT22;41972;48.774;9.282;2023-01-10T12:43:17;6.90;99.90
2158;DHT22;41972;48.774;9.282;2023-01-10T12:46:19;6.80;99.90
2158;DHT22;41972;48.774;9.282;2023-01-10T12:48:54;7.00;99.90
2158;DHT22;41972;48.774;9.282;2023-01-10T12:51:25;6.70;99.90
2158;DHT22;41972;48.774;9.282;2023-01-10T12:53:57;6.70;99.90
2158;DHT22;41972;48.774;9.282;2023-01-10T12:56:26;6.90;99.90
2158;DHT22;41972;48.774;9.282;2023-01-10T12:59:10;7.20;99.90
2158;DHT22;41972;48.774;9.282;2023-01-10T13:01:40;6.90;99.90
2158;DHT22;41972;48.774;9.282;2023-01-10T13:04:15;6.80;99.90
2158;DHT22;41972;48.774;9.282;2023-01-10T13:06:42;7.20;99.90
2158;DHT22;41972;48.774;9.282;2023-01-10T13:09:21;7.10;99.90
2158;DHT22;41972;48.774;9.282;2023-01-10T13:12:13;7.10;99.90
2158;DHT22;41972;48.774;9.282;2023-01-10T13:15:08;6.90;99.90
2158;DHT22;41972;48.774;9.282;2023-01-10T13:17:42;6.70;99.90
2158;DHT22;41972;48.774;9.282;2023-01-10T13:22:44;6.80;99.90
2158;DHT22;41972;48.774;9.282;2023-01-10T13:28:18;6.70;99.90
2158;DHT22;41972;48.774;9.282;2023-01-10T13:30:57;6.80;99.90
2158;DHT22;41972;48.774;9.282;2023-01-10T13:33:28;7.10;99.90
2158;DHT22;41972;48.774;9.282;2023-01-10T13:35:58;7.00;99.90
2158;DHT22;41972;48.774;9.282;2023-01-10T13:41:07;6.80;99.90
2158;DHT22;41972;48.774;9.282;2023-01-10T13:51:25;7.00;99.90
2158;DHT22;41972;48.774;9.282;2023-01-10T13:53:58;6.90;99.90
2158;DHT22;41972;48.774;9.282;2023-01-10T13:56:31;6.50;99.90
2158;DHT22;41972;48.774;9.282;2023-01-10T13:58:58;6.40;99.90
2158;DHT22;41972;48.774;9.282;2023-01-10T14:01:57;6.60;99.90
2158;DHT22;41972;48.774;9.282;2023-01-10T14:04:53;6.80;99.90
2158;DHT22;41972;48.774;9.282;2023-01-10T14:07:33;6.80;99.90
2158;DHT22;41972;48.774;9.282;2023-01-10T14:10:06;6.90;99.90
2158;DHT22;41972;48.774;9.282;2023-01-10T14:12:45;6.80;99.90
2158;DHT22;41972;48.774;9.282;2023-01-10T14:15:25;6.80;99.90
2158;DHT22;41972;48.774;9.282;2023-01-10T14:18:05;7.00;99.90
2158;DHT22;41972;48.774;9.282;2023-01-10T14:20:33;6.90;99.90
2158;DHT22;41972;48.774;9.282;2023-01-10T14:23:18;7.20;99.90
2158;DHT22;41972;48.774;9.282;2023-01-10T14:25:51;7.00;99.90
2158;DHT22;41972;48.774;9.282;2023-01-10T14:28:30;7.10;99.90
2158;DHT22;41972;48.774;9.282;2023-01-10T14:31:23;6.90;99.90
2158;DHT22;41972;48.774;9.282;2023-01-10T14:33:50;6.90;99.90
2158;DHT22;41972;48.774;9.282;2023-01-10T14:36:27;6.70;99.90
2158;DHT22;41972;48.774;9.282;2023-01-10T14:38:57;6.80;99.90
2158;DHT22;41972;48.774;9.282;2023-01-10T14:41:42;6.60;99.90
2158;DHT22;41972;48.774;9.282;2023-01-10T14:44:16;6.60;99.90
2158;DHT22;41972;48.774;9.282;2023-01-10T14:46:45;6.40;99.90
2158;DHT22;41972;48.774;9.282;2023-01-10T14:49:47;6.40;99.90
2158;DHT22;41972;48.774;9.282;2023-01-10T14:52:21;6.30;99.90
2158;DHT22;41972;48.774;9.282;2023-01-10T14:55:15;6.30;99.90
2158;DHT22;41972;48.774;9.282;2023-01-10T14:57:55;6.20;99.90
2158;DHT22;41972;48.774;9.282;2023-01-10T15:00:31;6.10;99.90
2158;DHT22;41972;48.774;9.282;2023-01-10T15:02:59;6.00;99.90
2158;DHT22;41972;48.774;9.282;2023-01-10T15:05:29;5.90;99.90
2158;DHT22;41972;48.774;9.282;2023-01-10T15:10:42;5.90;99.90
2158;DHT22;41972;48.774;9.282;2023-01-10T15:13:13;5.80;99.90
2158;DHT22;41972;48.774;9.282;2023-01-10T15:15:40;5.80;99.90
2158;DHT22;41972;48.774;9.282;2023-01-10T15:20:55;5.70;99.90
2158;DHT22;41972;48.774;9.282;2023-01-10T15:23:21;5.70;99.90
2158;DHT22;41972;48.774;9.282;2023-01-10T15:25:57;5.70;99.90
2158;DHT22;41972;48.774;9.282;2023-01-10T15:28:23;5.60;99.90
2158;DHT22;41972;48.774;9.282;2023-01-10T15:30:48;5.50;99.90
2158;DHT22;41972;48.774;9.282;2023-01-10T15:33:18;5.50;99.90
2158;DHT22;41972;48.774;9.282;2023-01-10T15:35:44;5.40;99.90
2158;DHT22;41972;48.774;9.282;2023-01-10T15:38:15;5.40;99.90
2158;DHT22;41972;48.774;9.282;2023-01-10T15:40:42;5.40;99.90
2158;DHT22;41972;48.774;9.282;2023-01-10T15:45:44;5.20;99.90
2158;DHT22;41972;48.774;9.282;2023-01-10T15:48:39;5.30;99.90
2158;DHT22;41972;48.774;9.282;2023-01-10T15:56:35;5.20;99.90
2158;DHT22;41972;48.774;9.282;2023-01-10T15:59:03;5.00;99.90
2158;DHT22;41972;48.774;9.282;2023-01-10T16:01:30;4.90;99.90
2158;DHT22;41972;48.774;9.282;2023-01-10T16:04:11;4.80;99.90
2158;DHT22;41972;48.774;9.282;2023-01-10T16:06:39;4.60;99.90
2158;DHT22;41972;48.774;9.282;2023-01-10T16:09:18;4.60;99.90
2158;DHT22;41972;48.774;9.282;2023-01-10T16:11:49;4.50;99.90
2158;DHT22;41972;48.774;9.282;2023-01-10T16:14:33;4.50;99.90
2158;DHT22;41972;48.774;9.282;2023-01-10T16:17:00;4.60;99.90
2158;DHT22;41972;48.774;9.282;2023-01-10T16:19:26;4.60;99.90
2158;DHT22;41972;48.774;9.282;2023-01-10T16:21:54;4.60;99.90
2158;DHT22;41972;48.774;9.282;2023-01-10T16:24:28;4.60;99.90
2158;DHT22;41972;48.774;9.282;2023-01-10T16:26:55;4.60;99.90
2158;DHT22;41972;48.774;9.282;2023-01-10T16:29:21;4.50;99.90
2158;DHT22;41972;48.774;9.282;2023-01-10T16:31:48;4.30;99.90
2158;DHT22;41972;48.774;9.282;2023-01-10T16:34:14;4.30;99.90
2158;DHT22;41972;48.774;9.282;2023-01-10T16:36:41;4.30;99.90
2158;DHT22;41972;48.774;9.282;2023-01-10T16:39:13;4.20;99.90
2158;DHT22;41972;48.774;9.282;2023-01-10T16:41:42;4.20;99.90
2158;DHT22;41972;48.774;9.282;2023-01-10T16:44:27;4.20;99.90
2158;DHT22;41972;48.774;9.282;2023-01-10T16:46:52;4.20;99.90
2158;DHT22;41972;48.774;9.282;2023-01-10T16:49:19;4.20;99.90
2158;DHT22;41972;48.774;9.282;2023-01-10T16:51:45;4.20;99.90
2158;DHT22;41972;48.774;9.282;2023-01-10T16:54:15;4.30;99.90
2158;DHT22;41972;48.774;9.282;2023-01-10T16:56:42;4.50;99.90
2158;DHT22;41972;48.774;9.282;2023-01-10T16:59:10;4.50;99.90
2158;DHT22;41972;48.774;9.282;2023-01-10T17:01:39;4.50;99.90
2158;DHT22;41972;48.774;9.282;2023-01-10T17:04:07;4.60;99.90
2158;DHT22;41972;48.774;9.282;2023-01-10T17:06:34;4.70;99.90
2158;DHT22;41972;48.774;9.282;2023-01-10T17:09:00;4.70;99.90
2158;DHT22;41972;48.774;9.282;2023-01-10T17:11:31;4.70;99.90
2158;DHT22;41972;48.774;9.282;2023-01-10T17:13:59;4.70;99.90
2158;DHT22;41972;48.774;9.282;2023-01-10T17:16:25;4.60;99.90
2158;DHT22;41972;48.774;9.282;2023-01-10T17:18:50;4.50;99.90
2158;DHT22;41972;48.774;9.282;2023-01-10T17:21:18;4.50;99.90
2158;DHT22;41972;48.774;9.282;2023-01-10T17:23:44;4.50;99.90
2158;DHT22;41972;48.774;9.282;2023-01-10T17:26:12;4.50;99.90
2158;DHT22;41972;48.774;9.282;2023-01-10T17:28:39;4.50;99.90
2158;DHT22;41972;48.774;9.282;2023-01-10T17:31:06;4.50;99.90
2158;DHT22;41972;48.774;9.282;2023-01-10T17:33:32;4.60;99.90
2158;DHT22;41972;48.774;9.282;2023-01-10T17:35:58;4.60;99.90
2158;DHT22;41972;48.774;9.282;2023-01-10T17:38:25;4.70;99.90
2158;DHT22;41972;48.774;9.282;2023-01-10T17:40:52;4.60;99.90
2158;DHT22;41972;48.774;9.282;2023-01-10T17:43:19;4.50;99.90
2158;DHT22;41972;48.774;9.282;2023-01-10T17:45:48;4.40;99.90
2158;DHT22;41972;48.774;9.282;2023-01-10T17:48:15;4.40;99.90
2158;DHT22;41972;48.774;9.282;2023-01-10T17:50:42;4.50;99.90
2158;DHT22;41972;48.774;9.282;2023-01-10T17:53:08;4.50;99.90
2158;DHT22;41972;48.774;9.282;2023-01-10T17:55:34;4.40;99.90
2158;DHT22;41972;48.774;9.282;2023-01-10T17:58:00;4.50;99.90
2158;DHT22;41972;48.774;9.282;2023-01-10T18:00:27;4.50;99.90
2158;DHT22;41972;48.774;9.282;2023-01-10T18:02:53;4.50;99.90
2158;DHT22;41972;48.774;9.282;2023-01-10T18:05:19;4.60;99.90
2158;DHT22;41972;48.774;9.282;2023-01-10T18:07:45;4.60;99.90
2158;DHT22;41972;48.774;9.282;2023-01-10T18:10:10;4.60;99.90
2158;DHT22;41972;48.774;9.282;2023-01-10T18:12:36;4.70;99.90
2158;DHT22;41972;48.774;9.282;2023-01-10T18:15:03;4.70;99.90